Time;durP1;ratioP1;P1;durP2;ratioP2;P2;SDS_P1;SDS_P2;PMS_P1;PMS_P2;Temp;Humidity;BMP_temperature;BMP_pressure;BME280_temperature;BME280_humidity;BME280_pressure;Samples;Min_cycle;Max_cycle;Signal;HPM_P1;HPM_P2
2023/04/08 00:01:01;;;;;;;;;5.00;5.00;;;;;8.44;100.00;101778.06;4980600;28;45507;-79
2023/04/08 00:03:27;;;;;;;;;7.00;7.00;;;;;8.42;100.00;101777.34;4984603;28;45626;-80
2023/04/08 00:05:52;;;;;;;;;11.33;8.67;;;;;8.37;100.00;101779.72;4986422;28;46065;-80
2023/04/08 00:08:17;;;;;;;;;6.00;6.00;;;;;8.38;100.00;101775.97;4984662;28;45812;-80
2023/04/08 00:10:43;;;;;;;;;8.33;5.67;;;;;8.35;100.00;101779.88;4980789;28;45781;-80
2023/04/08 00:13:08;;;;;;;;;5.67;5.67;;;;;8.24;100.00;101761.09;4980920;28;45582;-80
2023/04/08 00:15:36;;;;;;;;;7.33;6.00;;;;;8.30;100.00;101783.13;5011044;28;46281;-80
2023/04/08 00:18:01;;;;;;;;;2.00;2.00;;;;;8.27;100.00;101778.00;4992337;28;45764;-80
2023/04/08 00:20:26;;;;;;;;;7.00;7.00;;;;;8.25;100.00;101780.06;4995331;28;45715;-80
2023/04/08 00:22:52;;;;;;;;;6.67;4.00;;;;;8.22;100.00;101783.13;4994709;28;45540;-81
2023/04/08 00:25:17;;;;;;;;;7.33;5.67;;;;;8.20;100.00;101784.31;5002132;28;45350;-79
2023/04/08 00:27:43;;;;;;;;;10.67;6.67;;;;;8.12;100.00;101777.78;5003562;28;45403;-81
2023/04/08 00:30:08;;;;;;;;;7.00;5.00;;;;;8.12;100.00;101774.22;5013480;28;45667;-79
2023/04/08 00:32:34;;;;;;;;;4.33;4.33;;;;;8.04;100.00;101771.47;4987497;28;45920;-80
2023/04/08 00:34:59;;;;;;;;;7.00;7.00;;;;;8.05;100.00;101778.63;4980639;28;47568;-80
2023/04/08 00:37:25;;;;;;;;;6.00;6.00;;;;;8.04;100.00;101787.84;5002687;28;45558;-80
2023/04/08 00:39:52;;;;;;;;;8.67;6.00;;;;;8.03;100.00;101794.34;4997177;28;45420;-79
2023/04/08 00:42:18;;;;;;;;;6.00;6.00;;;;;7.97;100.00;101790.41;4979227;28;46040;-79
2023/04/08 00:44:43;;;;;;;;;8.00;7.00;;;;;7.90;100.00;101781.16;4996321;28;46279;-80
2023/04/08 00:47:14;;;;;;;;;4.33;3.00;;;;;7.85;100.00;101781.66;4977467;28;45765;-79
2023/04/08 00:49:40;;;;;;;;;6.33;5.00;;;;;7.94;100.00;101793.47;5004515;28;45451;-80
2023/04/08 00:52:06;;;;;;;;;12.00;8.67;;;;;7.89;100.00;101791.22;4957809;28;46031;-80
2023/04/08 00:54:31;;;;;;;;;9.00;8.00;;;;;7.94;100.00;101798.94;4993842;28;45703;-80
2023/04/08 00:57:00;;;;;;;;;8.33;4.67;;;;;7.90;100.00;101792.09;5004319;28;45882;-80
2023/04/08 00:59:27;;;;;;;;;7.33;5.33;;;;;7.90;100.00;101801.16;5004051;28;45489;-80
2023/04/08 01:02:12;;;;;;;;;7.33;6.67;;;;;7.89;100.00;101799.44;4994328;28;45414;-80
2023/04/08 01:04:54;;;;;;;;;9.00;8.00;;;;;7.85;100.00;101795.31;4987289;28;45621;-79
2023/04/08 01:07:30;;;;;;;;;8.00;7.00;;;;;7.82;100.00;101783.88;4994230;28;45400;-80
2023/04/08 01:10:00;;;;;;;;;9.67;8.00;;;;;7.83;100.00;101796.50;4996071;28;45395;-78
2023/04/08 01:12:28;;;;;;;;;6.67;6.00;;;;;7.66;100.00;101773.72;4986067;28;45783;-80
2023/04/08 01:15:06;;;;;;;;;11.33;9.00;;;;;7.83;100.00;101791.03;4995049;28;46696;-80
2023/04/08 01:17:33;;;;;;;;;6.67;6.67;;;;;7.80;100.00;101794.09;4995319;28;45842;-80
2023/04/08 01:20:00;;;;;;;;;7.33;6.67;;;;;7.78;100.00;101792.41;4976146;28;45377;-80
2023/04/08 01:22:59;;;;;;;;;6.67;6.67;;;;;7.77;100.00;101798.03;4992628;28;45476;-81
2023/04/08 01:25:37;;;;;;;;;10.67;9.67;;;;;7.76;100.00;101799.03;4992888;28;45792;-81
2023/04/08 01:28:15;;;;;;;;;7.67;6.67;;;;;7.76;100.00;101799.03;4974612;28;45732;-80
2023/04/08 01:30:42;;;;;;;;;12.00;6.67;;;;;7.76;100.00;101796.31;4990309;28;45398;-81
2023/04/08 01:33:11;;;;;;;;;8.33;6.67;;;;;7.71;100.00;101783.16;5003930;28;45731;-80
2023/04/08 01:35:37;;;;;;;;;8.67;6.00;;;;;7.69;100.00;101793.34;4979159;28;46675;-80
2023/04/08 01:38:07;;;;;;;;;10.67;8.00;;;;;7.67;100.00;101800.03;4991783;28;45944;-81
2023/04/08 01:40:36;;;;;;;;;9.00;7.00;;;;;7.57;100.00;101784.63;4992096;28;45651;-78
2023/04/08 01:43:04;;;;;;;;;8.33;7.00;;;;;7.67;100.00;101798.13;4976288;28;45812;-82
2023/04/08 01:45:30;;;;;;;;;9.00;8.00;;;;;7.65;100.00;101796.59;4998406;28;47200;-80
2023/04/08 01:47:57;;;;;;;;;7.00;7.00;;;;;7.62;100.00;101791.44;5001748;28;45849;-81
2023/04/08 01:50:25;;;;;;;;;8.33;6.33;;;;;7.60;100.00;101792.50;4992288;28;45879;-79
2023/04/08 01:52:52;;;;;;;;;9.67;6.33;;;;;7.59;100.00;101790.78;4998972;28;45909;-79
2023/04/08 01:55:18;;;;;;;;;11.00;9.33;;;;;7.59;100.00;101798.97;4990394;28;46388;-80
2023/04/08 01:57:48;;;;;;;;;11.00;9.00;;;;;7.53;100.00;101788.69;4993387;28;45784;-79
2023/04/08 02:00:17;;;;;;;;;11.67;10.33;;;;;7.54;100.00;101797.72;4993167;28;45687;-78
2023/04/08 02:02:43;;;;;;;;;9.00;9.00;;;;;7.50;100.00;101783.56;4991694;28;45842;-79
2023/04/08 02:05:09;;;;;;;;;11.00;7.67;;;;;7.49;100.00;101790.03;4991680;28;46697;-79
2023/04/08 02:07:35;;;;;;;;;9.33;8.00;;;;;7.49;100.00;101790.03;4974089;28;46412;-80
2023/04/08 02:10:01;;;;;;;;;15.33;9.33;;;;;7.53;100.00;101790.56;4991477;28;45815;-80
2023/04/08 02:12:27;;;;;;;;;10.00;10.00;;;;;7.45;100.00;101777.72;5006739;28;45451;-80
2023/04/08 02:14:53;;;;;;;;;13.00;11.67;;;;;7.45;100.00;101787.78;5010906;28;46673;-81
2023/04/08 02:17:23;;;;;;;;;10.67;8.00;;;;;7.45;100.00;101788.63;4994677;28;45546;-81
2023/04/08 02:20:03;;;;;;;;;12.00;12.00;;;;;7.32;100.00;101778.19;5002782;28;45412;-80
2023/04/08 02:22:40;;;;;;;;;9.67;8.00;;;;;7.39;100.00;101792.88;5002043;28;45710;-81
2023/04/08 02:25:12;;;;;;;;;12.33;12.00;;;;;7.37;100.00;101797.66;4984729;28;46481;-81
2023/04/08 02:27:43;;;;;;;;;14.00;12.33;;;;;7.37;100.00;101805.00;4972666;28;45797;-80
2023/04/08 02:30:10;;;;;;;;;14.00;12.67;;;;;7.35;100.00;101791.50;4993324;28;45424;-80
2023/04/08 02:32:36;;;;;;;;;12.00;12.00;;;;;7.38;100.00;101799.38;4996292;28;45417;-79
2023/04/08 02:35:04;;;;;;;;;13.33;9.33;;;;;7.39;100.00;101792.03;5009722;28;45737;-80
2023/04/08 02:37:30;;;;;;;;;15.00;11.67;;;;;7.38;100.00;101803.94;4994072;28;45503;-80
2023/04/08 02:39:56;;;;;;;;;8.00;5.67;;;;;7.34;100.00;101788.94;4995719;28;45441;-81
2023/04/08 02:42:22;;;;;;;;;9.00;9.00;;;;;7.29;100.00;101794.88;4992146;28;46028;-80
2023/04/08 02:44:47;;;;;;;;;14.00;13.00;;;;;7.27;100.00;101796.91;5002074;28;45491;-81
2023/04/08 02:47:12;;;;;;;;;12.00;12.00;;;;;7.27;100.00;101796.06;4994219;28;45349;-78
2023/04/08 02:49:38;;;;;;;;;8.67;6.33;;;;;7.14;100.00;101774.66;4994443;28;45428;-80
2023/04/08 02:52:03;;;;;;;;;16.67;14.00;;;;;7.12;100.00;101771.25;4994531;28;45400;-80
2023/04/08 02:54:29;;;;;;;;;11.67;10.67;;;;;7.15;100.00;101779.94;4991410;28;45747;-80
2023/04/08 02:56:54;;;;;;;;;11.33;9.33;;;;;7.22;100.00;101791.09;5001019;28;45765;-80
2023/04/08 02:59:23;;;;;;;;;10.00;8.67;;;;;7.21;100.00;101795.66;4968198;28;45969;-81
2023/04/08 03:01:48;;;;;;;;;11.67;8.67;;;;;7.21;100.00;101795.66;4993288;28;45409;-80
2023/04/08 03:04:14;;;;;;;;;8.00;6.67;;;;;6.99;100.00;101760.75;4993530;28;46884;-80
2023/04/08 03:06:39;;;;;;;;;12.67;8.00;;;;;7.15;100.00;101799.03;4997132;28;45447;-82
2023/04/08 03:09:05;;;;;;;;;10.00;10.00;;;;;7.16;100.00;101800.75;4996976;28;46017;-80
2023/04/08 03:11:31;;;;;;;;;11.00;9.33;;;;;7.13;100.00;101798.34;4993016;28;45408;-81
2023/04/08 03:13:56;;;;;;;;;14.33;9.67;;;;;7.13;100.00;101790.16;4980773;28;46262;-81
2023/04/08 03:16:22;;;;;;;;;14.33;11.67;;;;;7.14;100.00;101791.88;4992507;28;45811;-80
2023/04/08 03:18:49;;;;;;;;;9.67;8.00;;;;;6.98;100.00;101772.69;4982925;28;45752;-80
2023/04/08 03:21:14;;;;;;;;;11.00;10.67;;;;;6.96;100.00;101772.84;4996032;28;45650;-79
2023/04/08 03:23:40;;;;;;;;;9.67;9.67;;;;;7.05;100.00;101788.25;5001851;28;47434;-79
2023/04/08 03:26:05;;;;;;;;;13.00;11.00;;;;;7.07;100.00;101796.28;5005505;28;45489;-79
2023/04/08 03:28:31;;;;;;;;;15.33;11.67;;;;;7.03;100.00;101789.41;4991413;28;45432;-78
2023/04/08 03:30:56;;;;;;;;;12.67;12.00;;;;;7.01;100.00;101788.72;4993332;28;45876;-79
2023/04/08 03:33:21;;;;;;;;;9.67;9.67;;;;;7.03;100.00;101794.88;4995701;28;47182;-80
2023/04/08 03:35:47;;;;;;;;;12.33;11.33;;;;;6.91;100.00;101785.25;4978224;28;45826;-80
2023/04/08 03:38:12;;;;;;;;;12.00;11.33;;;;;6.89;100.00;101786.25;4997215;28;45810;-80
2023/04/08 03:40:38;;;;;;;;;11.00;10.33;;;;;6.77;100.00;101768.44;5000008;28;45881;-81
2023/04/08 03:43:05;;;;;;;;;16.00;11.67;;;;;6.92;100.00;101796.00;4993569;28;46392;-83
2023/04/08 03:45:31;;;;;;;;;10.33;10.33;;;;;6.77;100.00;101779.34;4993090;28;45674;-81
2023/04/08 03:47:56;;;;;;;;;10.33;10.33;;;;;6.85;100.00;101801.22;4995476;28;45459;-80
2023/04/08 03:50:22;;;;;;;;;19.00;15.67;;;;;6.81;100.00;101802.56;4992638;28;46106;-85
2023/04/08 03:52:47;;;;;;;;;10.67;10.00;;;;;6.85;100.00;101809.38;4995188;28;45768;-83
2023/04/08 03:55:13;;;;;;;;;12.00;11.00;;;;;6.84;100.00;101807.69;4979136;28;45704;-81
2023/04/08 03:57:38;;;;;;;;;14.33;10.67;;;;;6.86;100.00;101807.53;4980025;28;45766;-80
2023/04/08 04:00:07;;;;;;;;;13.00;13.00;;;;;6.88;100.00;101813.69;4991757;28;47127;-81
2023/04/08 04:02:32;;;;;;;;;16.00;14.67;;;;;6.86;100.00;101800.19;4997531;28;45558;-80
2023/04/08 04:04:58;;;;;;;;;22.67;15.00;;;;;6.86;100.00;101815.72;5006421;28;45476;-81
2023/04/08 04:07:26;;;;;;;;;13.33;11.67;;;;;6.86;100.00;101813.84;4997736;28;45867;-84
2023/04/08 04:09:55;;;;;;;;;15.33;13.33;;;;;6.68;100.00;101780.31;4978227;28;46078;-80
2023/04/08 04:12:20;;;;;;;;;12.00;8.33;;;;;6.76;100.00;101791.25;4995410;28;46978;-79
2023/04/08 04:14:46;;;;;;;;;16.00;9.33;;;;;6.86;100.00;101811.09;4979844;28;45867;-82
2023/04/08 04:17:11;;;;;;;;;5.67;5.00;;;;;6.86;100.00;101811.09;4994903;28;45824;-80
2023/04/08 04:19:37;;;;;;;;;11.33;11.33;;;;;6.84;100.00;101802.25;4994434;28;45696;-80
2023/04/08 04:22:02;;;;;;;;;13.00;11.00;;;;;6.83;100.00;101803.25;4985916;28;47683;-79
2023/04/08 04:24:27;;;;;;;;;11.00;8.33;;;;;6.67;100.00;101776.69;4997535;28;45522;-81
2023/04/08 04:26:53;;;;;;;;;12.00;8.00;;;;;6.83;100.00;101807.84;5013365;28;45811;-81
2023/04/08 04:29:18;;;;;;;;;52.00;40.50;;;;;6.68;100.00;101781.16;5003886;28;45589;-81
2023/04/08 04:31:44;;;;;;;;;12.67;10.00;;;;;6.83;100.00;101808.69;5006264;28;45991;-80
2023/04/08 04:34:10;;;;;;;;;17.00;16.67;;;;;6.79;100.00;101810.03;4981362;28;45641;-80
2023/04/08 04:36:35;;;;;;;;;10.33;9.67;;;;;6.76;100.00;101798.59;4993054;28;45629;-81
2023/04/08 04:39:01;;;;;;;;;9.67;8.00;;;;;6.80;100.00;101816.34;4996328;28;45563;-81
2023/04/08 04:41:27;;;;;;;;;14.67;12.00;;;;;6.68;100.00;101799.38;5006007;28;46150;-81
2023/04/08 04:43:52;;;;;;;;;11.00;8.00;;;;;6.79;100.00;101815.47;4991805;28;46016;-80
2023/04/08 04:46:18;;;;;;;;;8.50;8.50;;;;;6.76;100.00;101815.78;5013512;28;45450;-79
2023/04/08 04:48:43;;;;;;;;;10.00;10.00;;;;;6.75;100.00;101803.19;5011075;28;45566;-79
2023/04/08 04:51:08;;;;;;;;;13.00;11.67;;;;;6.71;100.00;101820.88;5008041;28;45590;-80
2023/04/08 04:53:34;;;;;;;;;12.33;11.00;;;;;6.80;100.00;101832.72;5010490;28;45032;-80
2023/04/08 04:56:02;;;;;;;;;10.67;8.67;;;;;6.78;100.00;101835.59;5000925;28;45340;-78
2023/04/08 04:58:28;;;;;;;;;12.00;10.00;;;;;6.78;100.00;101846.50;5003553;28;45554;-79
2023/04/08 05:00:53;;;;;;;;;9.67;7.67;;;;;6.79;100.00;101842.75;5006237;28;45477;-79
2023/04/08 05:03:18;;;;;;;;;8.00;8.00;;;;;6.80;100.00;101849.06;5000598;28;45546;-80
2023/04/08 05:05:44;;;;;;;;;7.67;7.00;;;;;6.81;100.00;101840.72;5000036;28;45386;-79
2023/04/08 05:08:09;;;;;;;;;10.67;10.33;;;;;6.84;100.00;101850.44;5003304;28;46942;-79
2023/04/08 05:10:35;;;;;;;;;14.00;9.00;;;;;6.86;100.00;101851.16;5001751;28;46100;-80
2023/04/08 05:13:00;;;;;;;;;8.33;7.00;;;;;6.81;100.00;101845.31;5003190;28;45491;-78
2023/04/08 05:15:25;;;;;;;;;11.67;8.00;;;;;6.89;100.00;101851.69;5008918;28;45797;-78
2023/04/08 05:17:51;;;;;;;;;8.33;7.33;;;;;6.91;100.00;101853.41;5006601;28;45722;-78
2023/04/08 05:20:16;;;;;;;;;16.33;8.67;;;;;6.88;100.00;101839.06;5005357;28;45741;-80
2023/04/08 05:22:44;;;;;;;;;12.00;10.00;;;;;7.01;100.00;101848.72;5011622;28;45576;-78
2023/04/08 05:25:10;;;;;;;;;10.00;8.67;;;;;7.14;100.00;101854.63;5008540;28;45685;-81
2023/04/08 05:27:36;;;;;;;;;6.00;6.00;;;;;7.31;100.00;101857.47;4992802;28;45659;-79
2023/04/08 05:30:01;;;;;;;;;7.33;6.00;;;;;7.43;100.00;101848.84;4981318;28;48071;-79
2023/04/08 05:32:28;;;;;;;;;13.67;10.67;;;;;7.80;100.00;101873.28;5001452;28;45919;-81
2023/04/08 05:34:54;;;;;;;;;12.00;8.33;;;;;8.09;100.00;101862.84;5002167;28;45542;-82
2023/04/08 05:37:19;;;;;;;;;9.33;7.33;;;;;8.54;100.00;101882.66;4998936;28;45684;-83
2023/04/08 05:39:45;;;;;;;;;11.67;9.33;;;;;8.78;100.00;101856.38;5008740;28;45788;-79
2023/04/08 05:42:12;;;;;;;;;10.00;10.00;;;;;9.43;100.00;101882.00;5001430;28;45784;-80
2023/04/08 05:44:40;;;;;;;;;11.67;11.67;;;;;9.93;100.00;101880.00;4995753;28;45571;-78
2023/04/08 05:47:09;;;;;;;;;4.33;2.33;;;;;10.39;100.00;101870.06;4995414;28;45750;-79
2023/04/08 05:49:34;;;;;;;;;10.67;9.33;;;;;10.96;100.00;101878.94;4989281;28;46211;-79
2023/04/08 05:52:00;;;;;;;;;8.67;7.00;;;;;11.57;100.00;101880.78;5001741;28;45519;-80
2023/04/08 05:54:26;;;;;;;;;10.67;9.00;;;;;12.14;100.00;101877.41;5002617;28;45429;-79
2023/04/08 05:56:51;;;;;;;;;14.00;10.00;;;;;12.70;100.00;101873.22;5001831;28;45398;-78
2023/04/08 05:59:16;;;;;;;;;13.67;11.67;;;;;13.32;100.00;101887.34;5004333;28;48180;-80
2023/04/08 06:01:42;;;;;;;;;12.00;11.00;;;;;13.78;100.00;101889.63;4981789;28;45495;-80
2023/04/08 06:04:07;;;;;;;;;14.67;12.33;;;;;14.19;100.00;101888.81;5000106;28;45476;-79
2023/04/08 06:06:33;;;;;;;;;15.67;11.00;;;;;14.78;100.00;101889.25;4989061;28;46108;-80
2023/04/08 06:08:58;;;;;;;;;11.67;11.67;;;;;15.35;100.00;101889.75;5000252;28;47172;-80
2023/04/08 06:11:24;;;;;;;;;17.33;12.33;;;;;15.77;100.00;101893.09;5001261;28;45894;-79
2023/04/08 06:13:49;;;;;;;;;10.67;8.33;;;;;16.15;100.00;101894.31;5001730;28;45444;-79
2023/04/08 06:16:16;;;;;;;;;12.67;11.00;;;;;16.67;100.00;101906.22;5006968;28;45824;-78
2023/04/08 06:18:42;;;;;;;;;12.33;11.00;;;;;17.29;100.00;101906.50;5007133;28;45704;-79
2023/04/08 06:21:07;;;;;;;;;11.67;7.00;;;;;17.74;98.88;101899.91;5004483;28;46186;-82
2023/04/08 06:23:33;;;;;;;;;12.00;8.67;;;;;18.31;95.17;101902.53;5006487;28;45566;-79
2023/04/08 06:25:58;;;;;;;;;8.67;7.67;;;;;18.77;91.93;101905.78;5003823;28;45485;-80
2023/04/08 06:28:24;;;;;;;;;17.33;12.67;;;;;18.93;87.69;101878.41;5016402;28;45549;-78
2023/04/08 06:30:49;;;;;;;;;14.67;13.33;;;;;19.33;84.13;101900.03;4996680;28;44805;-78
2023/04/08 06:33:15;;;;;;;;;34.67;29.33;;;;;19.44;83.18;101910.31;4990636;28;45502;-79
2023/04/08 06:35:40;;;;;;;;;16.00;13.33;;;;;19.71;81.74;101909.84;5008137;28;45622;-79
2023/04/08 06:38:06;;;;;;;;;11.33;10.00;;;;;19.93;79.36;101908.19;5008867;28;45650;-81
2023/04/08 06:40:32;;;;;;;;;14.33;11.67;;;;;20.21;78.00;101911.28;5008307;28;45451;-81
2023/04/08 06:42:57;;;;;;;;;14.67;9.67;;;;;20.53;75.63;101914.47;5009420;28;45452;-80
2023/04/08 06:45:23;;;;;;;;;12.00;11.00;;;;;20.76;73.43;101923.88;5008219;28;45850;-80
2023/04/08 06:47:49;;;;;;;;;9.67;8.67;;;;;21.04;72.22;101916.63;4990296;28;46965;-83
2023/04/08 06:50:15;;;;;;;;;12.00;10.33;;;;;20.92;69.96;101931.44;5006392;28;45527;-81
2023/04/08 06:52:40;;;;;;;;;7.00;7.00;;;;;;;;5002824;28;45434;-80
2023/04/08 06:55:06;;;;;;;;;7.67;6.00;;;;;21.19;68.59;101933.63;5009862;28;45411;-80
2023/04/08 06:57:31;;;;;;;;;10.33;7.33;;;;;21.02;66.44;101941.97;5014204;28;46381;-81
2023/04/08 06:59:59;;;;;;;;;6.00;5.67;;;;;21.09;66.54;101941.81;5015730;28;45435;-83
2023/04/08 07:02:24;;;;;;;;;9.00;9.00;;;;;21.26;65.29;101939.06;5010368;28;45606;-81
2023/04/08 07:04:51;;;;;;;;;13.33;9.33;;;;;21.28;65.06;101939.63;4988519;28;45952;-78
2023/04/08 07:07:16;;;;;;;;;9.33;8.00;;;;;21.63;63.90;101939.44;5010372;28;45265;-80
2023/04/08 07:09:44;;;;;;;;;11.00;8.33;;;;;21.55;63.77;101934.28;5014384;28;45303;-81
2023/04/08 07:12:11;;;;;;;;;10.00;8.33;;;;;21.60;61.71;101948.34;5007605;28;45336;-79
2023/04/08 07:14:36;;;;;;;;;9.33;9.33;;;;;21.69;61.67;101960.75;4983524;28;46132;-79
2023/04/08 07:17:02;;;;;;;;;8.67;5.33;;;;;21.33;60.63;101959.25;5014040;28;45415;-80
2023/04/08 07:19:28;;;;;;;;;7.67;7.67;;;;;21.04;61.47;101961.25;4986762;28;45609;-82
2023/04/08 07:21:54;;;;;;;;;8.33;8.33;;;;;20.76;61.47;101940.63;4996051;28;45371;-79
2023/04/08 07:24:19;;;;;;;;;8.33;6.00;;;;;20.91;61.26;101956.81;5011810;28;45383;-81
2023/04/08 07:26:45;;;;;;;;;11.33;9.67;;;;;20.88;60.86;101948.94;4988213;28;46946;-79
2023/04/08 07:29:10;;;;;;;;;9.33;8.00;;;;;20.60;60.51;101951.44;5003286;28;45417;-84
2023/04/08 07:31:36;;;;;;;;;7.33;7.33;;;;;20.29;61.72;101959.13;4983834;28;45421;-83
2023/04/08 07:34:01;;;;;;;;;8.67;8.67;;;;;20.35;61.26;101937.81;5002493;28;45992;-80
2023/04/08 07:36:27;;;;;;;;;5.67;5.67;;;;;20.70;61.01;101955.56;5012626;28;46033;-82
2023/04/08 07:38:53;;;;;;;;;16.33;13.33;;;;;20.79;60.17;101957.72;5014858;28;45358;-82
2023/04/08 07:41:20;;;;;;;;;11.67;11.00;;;;;20.73;59.74;101966.19;4999390;28;45424;-81
2023/04/08 07:43:45;;;;;;;;;12.00;10.00;;;;;20.38;60.90;101962.38;5000179;28;45549;-82
2023/04/08 07:46:10;;;;;;;;;9.67;8.67;;;;;19.94;61.70;101964.75;4998779;28;45367;-80
2023/04/08 07:48:36;;;;;;;;;11.67;11.00;;;;;18.71;62.16;101965.06;4987950;28;45714;-81
2023/04/08 07:51:08;;;;;;;;;13.00;10.67;;;;;17.41;65.17;101975.09;5003189;28;45791;-79
2023/04/08 07:53:34;;;;;;;;;11.67;11.67;;;;;16.45;67.84;101976.84;4997064;28;45384;-81
2023/04/08 07:56:02;;;;;;;;;14.67;14.00;;;;;15.59;70.86;101984.19;5002465;28;46958;-81
2023/04/08 07:58:30;;;;;;;;;16.67;13.33;;;;;14.77;73.47;101982.28;4998744;28;45727;-82
2023/04/08 08:00:56;;;;;;;;;17.33;14.33;;;;;14.13;76.18;101988.91;5002032;28;45443;-80
2023/04/08 08:03:21;;;;;;;;;14.00;14.00;;;;;13.73;78.29;101988.66;5016809;28;45452;-79
2023/04/08 08:05:47;;;;;;;;;18.33;15.00;;;;;13.13;81.83;101942.06;5002656;28;46048;-79
2023/04/08 08:08:12;;;;;;;;;17.67;16.67;;;;;12.96;83.59;101974.50;5005584;28;45765;-80
2023/04/08 08:10:38;;;;;;;;;16.33;15.33;;;;;12.76;85.28;101995.44;5006176;28;45729;-80
2023/04/08 08:13:05;;;;;;;;;19.33;18.00;;;;;12.33;87.58;101996.13;5007967;28;45496;-81
2023/04/08 08:15:30;;;;;;;;;18.33;16.67;;;;;12.00;90.91;101991.00;5009094;28;45816;-80
2023/04/08 08:17:57;;;;;;;;;17.33;15.00;;;;;11.81;92.59;101987.72;5011917;28;44762;-81
2023/04/08 08:20:22;;;;;;;;;19.33;17.00;;;;;11.53;94.92;101972.88;5013518;28;45476;-79
2023/04/08 08:22:47;;;;;;;;;17.00;14.67;;;;;11.42;97.53;101988.75;4992201;28;46311;-80
2023/04/08 08:25:13;;;;;;;;;20.67;15.00;;;;;11.24;98.95;101978.09;5012533;28;45344;-81
2023/04/08 08:27:40;;;;;;;;;14.00;14.00;;;;;11.26;100.00;102000.72;5017056;28;45382;-80
2023/04/08 08:30:07;;;;;;;;;19.33;13.67;;;;;11.18;100.00;101997.16;5013176;28;45141;-80
2023/04/08 08:32:32;;;;;;;;;17.67;16.00;;;;;11.08;100.00;101995.50;5014636;28;45275;-79
2023/04/08 08:35:07;;;;;;;;;22.67;18.00;;;;;11.02;100.00;101990.75;5005544;28;46194;-85
2023/04/08 08:37:33;;;;;;;;;14.33;14.33;;;;;11.07;100.00;101996.53;5006213;28;45955;-80
2023/04/08 08:39:58;;;;;;;;;19.33;18.67;;;;;11.15;100.00;102003.88;5015949;28;45642;-80
2023/04/08 08:42:24;;;;;;;;;21.33;15.00;;;;;11.12;100.00;102004.22;5012320;28;45763;-82
2023/04/08 08:44:50;;;;;;;;;25.00;19.33;;;;;11.15;100.00;102014.84;5018913;28;48367;-81
2023/04/08 08:47:16;;;;;;;;;19.00;16.33;;;;;11.13;100.00;102011.44;4999573;28;45144;-81
2023/04/08 08:49:46;;;;;;;;;20.00;17.67;;;;;11.10;100.00;101996.19;5020542;28;45879;-80
2023/04/08 08:52:16;;;;;;;;;23.00;20.67;;;;;11.70;100.00;102012.91;5004606;28;45392;-78
2023/04/08 08:54:41;;;;;;;;;20.00;17.00;;;;;13.16;100.00;102005.03;4999934;28;45078;-82
2023/04/08 08:57:19;;;;;;;;;21.00;20.67;;;;;14.63;99.76;101999.88;4999765;28;45505;-83
2023/04/08 08:59:49;;;;;;;;;23.67;19.67;;;;;15.93;94.69;101991.44;4992121;28;45886;-81
2023/04/08 09:02:28;;;;;;;;;18.33;17.00;;;;;17.28;90.59;102003.78;4993010;28;46317;-82
2023/04/08 09:05:01;;;;;;;;;20.33;20.00;;;;;18.09;84.04;101995.69;4971961;28;46691;-81
2023/04/08 09:07:29;;;;;;;;;12.67;12.67;;;;;18.87;81.08;101995.00;4980091;28;45691;-81
2023/04/08 09:09:56;;;;;;;;;17.00;16.67;;;;;19.97;76.43;101996.81;5001892;28;45772;-80
2023/04/08 09:12:22;;;;;;;;;16.33;15.00;;;;;20.45;72.53;101995.69;5010488;28;45869;-80
2023/04/08 09:14:49;;;;;;;;;17.00;16.67;;;;;20.45;72.20;101995.69;4984604;28;45814;-84
2023/04/08 09:17:16;;;;;;;;;15.00;13.33;;;;;20.11;70.85;101987.13;5021647;28;45789;-83
2023/04/08 09:20:08;;;;;;;;;18.33;17.33;;;;;21.11;68.73;101998.22;5000749;28;45400;-84
2023/04/08 09:22:34;;;;;;;;;22.67;17.00;;;;;21.44;66.27;101994.63;4986844;28;45852;-82
2023/04/08 09:25:00;;;;;;;;;18.67;14.33;;;;;21.86;64.48;101988.66;5011197;28;45666;-81
2023/04/08 09:27:35;;;;;;;;;17.67;15.00;;;;;22.07;61.92;101985.38;4998845;28;45295;-80
2023/04/08 09:30:13;;;;;;;;;17.00;14.67;;;;;22.49;60.84;101993.25;4993862;28;46066;-82
2023/04/08 09:32:53;;;;;;;;;12.33;11.00;;;;;22.63;59.68;101988.97;4990024;28;45523;-72
2023/04/08 09:35:20;;;;;;;;;14.00;12.00;;;;;22.54;58.41;101996.13;4984036;28;45680;-82
2023/04/08 09:37:46;;;;;;;;;15.33;15.33;;;;;22.78;57.42;102001.47;4999858;28;45513;-83
2023/04/08 09:40:14;;;;;;;;;12.67;12.67;;;;;22.63;57.17;101994.56;4984130;28;45633;-82
2023/04/08 09:42:43;;;;;;;;;11.67;8.33;;;;;22.49;56.84;101994.09;5007216;28;45827;-82
2023/04/08 09:45:10;;;;;;;;;13.33;13.00;;;;;22.85;56.25;101999.31;4996548;28;46862;-82
2023/04/08 09:48:01;;;;;;;;;14.33;13.00;;;;;22.88;55.70;101994.03;4975717;28;46448;-80
2023/04/08 09:50:31;;;;;;;;;16.00;14.33;;;;;23.39;54.86;101971.38;4989616;28;45369;-82
2023/04/08 09:53:08;;;;;;;;;12.33;12.33;;;;;23.77;54.18;101986.28;4989908;28;46019;-82
2023/04/08 09:55:36;;;;;;;;;14.67;12.33;;;;;23.99;53.29;101990.94;4990156;28;46301;-83
2023/04/08 09:58:17;;;;;;;;;12.00;11.67;;;;;24.65;51.82;101990.50;4991449;28;45928;-83
2023/04/08 10:00:49;;;;;;;;;11.33;10.33;;;;;24.88;50.40;101979.94;4998746;28;45579;-82
2023/04/08 10:03:14;;;;;;;;;9.00;9.00;;;;;25.98;49.59;101989.06;4995954;28;46383;-82
2023/04/08 10:05:42;;;;;;;;;7.67;7.67;;;;;26.67;48.04;101988.66;5000900;28;45830;-83
2023/04/08 10:08:09;;;;;;;;;9.00;9.00;;;;;26.12;47.26;101983.72;4994025;28;45930;-83
2023/04/08 10:10:38;;;;;;;;;15.67;10.33;;;;;25.91;46.53;101982.88;4994442;28;46241;-83
2023/04/08 10:13:05;;;;;;;;;15.67;12.67;;;;;25.66;46.73;101992.16;4993529;28;45776;-83
2023/04/08 10:15:32;;;;;;;;;13.33;11.67;;;;;25.52;46.16;101981.50;4991979;28;45756;-83
2023/04/08 10:18:07;;;;;;;;;20.00;14.67;;;;;25.67;45.85;101997.50;4990687;28;45988;-81
2023/04/08 10:20:35;;;;;;;;;13.33;11.00;;;;;25.68;45.46;101989.91;4963515;28;45895;-82
2023/04/08 10:23:03;;;;;;;;;13.00;12.33;;;;;25.76;45.04;101958.44;4989659;28;47036;-82
2023/04/08 10:25:50;;;;;;;;;9.67;8.67;;;;;26.02;44.33;101980.94;4994682;28;45609;-88
2023/04/08 10:28:24;;;;;;;;;12.33;8.33;;;;;26.37;44.48;101991.25;4996099;28;45857;-83
2023/04/08 10:30:50;;;;;;;;;10.67;10.67;;;;;26.57;43.42;101979.09;4993911;28;45393;-81
2023/04/08 10:33:20;;;;;;;;;10.33;9.33;;;;;26.65;43.01;101971.16;5001897;28;47011;-78
2023/04/08 10:35:53;;;;;;;;;8.33;8.00;;;;;26.25;42.58;101977.50;4999002;28;46249;-85
2023/04/08 10:38:20;;;;;;;;;4.00;4.00;;;;;26.00;42.90;101932.56;4992256;28;45475;-85
2023/04/08 10:40:47;;;;;;;;;12.67;11.00;;;;;26.08;42.66;101977.00;4988607;28;45472;-78
2023/04/08 10:43:13;;;;;;;;;10.67;10.67;;;;;25.42;43.65;101964.63;4990976;28;45378;-82
2023/04/08 10:45:39;;;;;;;;;13.33;9.00;;;;;25.33;43.46;101932.59;4978463;28;45621;-81
2023/04/08 10:48:17;;;;;;;;;8.67;7.00;;;;;25.23;44.15;101961.50;5007628;28;45418;-83
2023/04/08 10:50:53;;;;;;;;;9.67;9.33;;;;;24.83;44.22;101940.63;4990937;28;45601;-85
2023/04/08 10:53:33;;;;;;;;;11.33;10.67;;;;;24.71;44.14;101946.47;5001788;28;45536;-86
2023/04/08 10:56:12;;;;;;;;;11.33;8.33;;;;;24.52;44.25;101922.81;4998052;28;45729;-83
2023/04/08 10:58:51;;;;;;;;;13.00;11.00;;;;;23.82;44.64;101920.16;4994368;28;45711;-81
2023/04/08 11:01:18;;;;;;;;;10.50;7.25;;;;;23.80;45.21;101926.03;4998111;28;45348;-84
2023/04/08 11:03:44;;;;;;;;;8.33;6.67;;;;;23.47;44.69;101894.44;4999697;28;45682;-77
2023/04/08 11:06:13;;;;;;;;;8.00;7.33;;;;;23.37;45.06;101953.13;4994092;28;46534;-78
2023/04/08 11:08:39;;;;;;;;;9.00;9.00;;;;;22.81;45.75;101947.78;4983394;28;45605;-78
2023/04/08 11:11:09;;;;;;;;;12.33;8.67;;;;;22.17;46.54;101943.59;4978773;28;45878;-79
2023/04/08 11:14:16;;;;;;;;;11.67;8.67;;;;;21.90;47.24;101935.97;4996060;28;46019;-81
2023/04/08 11:17:16;;;;;;;;;10.33;8.33;;;;;21.77;47.96;101913.97;4974278;28;45968;-80
2023/04/08 11:19:44;;;;;;;;;8.00;7.33;;;;;21.09;48.74;101902.75;4969306;28;45599;-80